createdAt,value
2019-02-10T00:02:18.660Z,63.00
2019-02-10T00:04:48.686Z,63.90
2019-02-10T00:07:18.609Z,67.40
2019-02-10T00:09:48.849Z,66.23
2019-02-10T00:12:19.703Z,65.40
2019-02-10T00:14:49.706Z,67.57
2019-02-10T00:17:19.636Z,64.60
2019-02-10T00:19:49.755Z,65.10
2019-02-10T00:22:19.670Z,64.00
2019-02-10T00:24:49.747Z,66.17
2019-02-10T00:27:19.668Z,63.63
2019-02-10T00:29:49.773Z,64.47
2019-02-10T00:32:19.679Z,65.50
2019-02-10T00:34:49.698Z,64.47
2019-02-10T00:37:20.736Z,64.87
2019-02-10T00:39:50.863Z,65.37
2019-02-10T00:42:20.771Z,61.87
2019-02-10T00:44:50.808Z,66.37
2019-02-10T00:47:20.759Z,63.90
2019-02-10T00:49:50.778Z,67.13
2019-02-10T00:52:20.676Z,65.90
2019-02-10T00:54:50.760Z,65.10
2019-02-10T00:57:20.671Z,62.27
2019-02-10T00:59:50.693Z,65.10
2019-02-10T01:02:20.616Z,64.53
2019-02-10T01:04:50.652Z,65.67
2019-02-10T01:07:20.567Z,66.63
2019-02-10T01:09:50.604Z,66.43
2019-02-10T01:12:22.936Z,64.20
2019-02-10T01:14:52.979Z,66.33
2019-02-10T01:17:35.642Z,64.23
2019-02-10T01:20:07.736Z,67.07
2019-02-10T01:22:37.673Z,67.97
2019-02-10T01:25:08.477Z,65.50
2019-02-10T01:27:38.385Z,66.70
2019-02-10T01:30:11.595Z,67.37
2019-02-10T01:32:41.494Z,65.23
2019-02-10T01:35:11.536Z,63.00
2019-02-10T01:37:41.466Z,62.70
2019-02-10T01:40:11.712Z,64.53
2019-02-10T01:42:41.633Z,67.63
2019-02-10T01:45:12.871Z,66.17
2019-02-10T01:47:42.772Z,66.53
2019-02-10T01:50:12.893Z,67.10
2019-02-10T01:52:42.818Z,66.97
2019-02-10T01:55:13.820Z,65.67
2019-02-10T01:57:44.702Z,64.73
2019-02-10T02:00:17.593Z,66.07
2019-02-10T02:02:47.503Z,65.57
2019-02-10T02:05:17.552Z,67.90
2019-02-10T02:07:48.620Z,70.83
2019-02-10T02:10:18.619Z,65.63
2019-02-10T02:12:49.497Z,65.50
2019-02-10T02:15:19.493Z,65.50
2019-02-10T02:17:50.575Z,64.67
2019-02-10T02:20:20.609Z,60.50
2019-02-10T02:22:50.513Z,67.73
2019-02-10T02:25:20.782Z,66.90
2019-02-10T02:27:51.701Z,62.47
2019-02-10T02:30:22.851Z,60.97
2019-02-10T02:32:52.788Z,65.53
2019-02-10T02:35:22.775Z,72.40
2019-02-10T02:37:53.719Z,70.57
2019-02-10T02:40:23.722Z,66.57
2019-02-10T02:42:53.677Z,64.30
2019-02-10T02:45:23.895Z,74.80
2019-02-10T02:47:54.910Z,111.57
2019-02-10T02:50:24.960Z,152.37
2019-02-10T02:52:54.870Z,111.83
2019-02-10T02:55:24.946Z,71.60
2019-02-10T02:57:55.904Z,81.23
2019-02-10T03:00:25.935Z,158.97
2019-02-10T03:02:55.862Z,136.17
2019-02-10T03:05:25.905Z,111.30
2019-02-10T03:07:56.893Z,98.80
2019-02-10T03:10:26.934Z,77.23
2019-02-10T03:12:57.814Z,66.00
2019-02-10T03:15:27.819Z,62.97
2019-02-10T03:17:58.881Z,60.70
2019-02-10T03:20:28.918Z,67.40
2019-02-10T03:22:59.024Z,83.87
2019-02-10T03:25:29.126Z,71.60
2019-02-10T03:28:00.236Z,68.27
2019-02-10T03:30:30.283Z,68.13
2019-02-10T03:33:00.302Z,67.50
2019-02-10T03:35:30.321Z,68.30
2019-02-10T03:38:02.466Z,69.33
2019-02-10T03:40:32.508Z,70.20
2019-02-10T03:43:02.535Z,68.90
2019-02-10T03:45:32.566Z,67.73
2019-02-10T03:48:03.757Z,67.40
2019-02-10T03:50:33.801Z,69.10
2019-02-10T03:53:03.737Z,68.10
2019-02-10T03:55:33.826Z,68.97
2019-02-10T03:58:04.854Z,68.20
2019-02-10T04:00:34.866Z,68.27
2019-02-10T04:03:04.787Z,68.20
2019-02-10T04:05:35.783Z,70.20
2019-02-10T04:08:06.869Z,69.40
2019-02-10T04:10:36.865Z,70.53
2019-02-10T04:13:07.741Z,69.43
2019-02-10T04:15:37.745Z,70.73
2019-02-10T04:18:08.870Z,69.43
2019-02-10T04:20:38.907Z,68.00
2019-02-10T04:23:09.930Z,69.17
2019-02-10T04:25:41.096Z,68.53
2019-02-10T04:28:12.145Z,70.87
2019-02-10T04:30:42.140Z,70.07
2019-02-10T04:33:12.080Z,71.80
2019-02-10T04:35:42.063Z,68.80
2019-02-10T04:38:13.229Z,70.70
2019-02-10T04:40:43.142Z,72.97
2019-02-10T04:43:13.165Z,70.00
2019-02-10T04:45:43.079Z,71.30
2019-02-10T04:48:14.208Z,71.20
2019-02-10T04:50:44.115Z,71.60
2019-02-10T04:53:14.145Z,69.93
2019-02-10T04:55:44.132Z,72.00
2019-02-10T04:58:15.286Z,73.23
2019-02-10T05:00:45.236Z,72.27
2019-02-10T05:03:15.209Z,70.67
2019-02-10T05:05:45.428Z,75.90
2019-02-10T05:08:16.619Z,71.27
2019-02-10T05:10:46.541Z,72.63
2019-02-10T05:13:17.442Z,72.13
2019-02-10T05:15:47.377Z,73.73
2019-02-10T05:18:18.517Z,76.47
2019-02-10T05:20:48.430Z,75.03
2019-02-10T05:23:18.444Z,74.03
2019-02-10T05:25:48.424Z,73.90
2019-02-10T05:28:19.588Z,74.00
2019-02-10T05:30:49.526Z,75.87
2019-02-10T05:33:19.519Z,74.33
2019-02-10T05:35:49.448Z,76.33
2019-02-10T05:38:20.594Z,79.90
2019-02-10T05:40:50.524Z,78.10
2019-02-10T05:43:20.535Z,75.47
2019-02-10T05:45:50.483Z,77.53
2019-02-10T05:48:21.673Z,78.87
2019-02-10T05:50:51.617Z,77.23
2019-02-10T05:53:21.623Z,79.70
2019-02-10T05:55:51.701Z,77.63
2019-02-10T05:58:22.758Z,75.77
2019-02-10T06:00:52.675Z,77.70
2019-02-10T06:03:22.699Z,77.87
2019-02-10T06:05:52.608Z,75.27
2019-02-10T06:08:23.757Z,78.83
2019-02-10T06:10:53.692Z,80.13
2019-02-10T06:13:24.618Z,76.93
2019-02-10T06:15:54.530Z,79.87
2019-02-10T06:18:25.691Z,78.33
2019-02-10T06:20:55.607Z,78.20
2019-02-10T06:23:25.632Z,79.33
2019-02-10T06:25:55.621Z,77.00
2019-02-10T06:28:27.792Z,77.80
2019-02-10T06:30:58.732Z,78.90
2019-02-10T06:33:28.728Z,80.33
2019-02-10T06:35:58.646Z,78.73
2019-02-10T06:38:29.787Z,78.87
2019-02-10T06:40:59.719Z,85.40
2019-02-10T06:43:29.738Z,84.90
2019-02-10T06:45:59.728Z,82.33
2019-02-10T06:48:33.544Z,79.70
2019-02-10T06:51:03.492Z,78.03
2019-02-10T06:53:34.768Z,81.60
2019-02-10T06:56:04.919Z,76.60
2019-02-10T06:58:36.067Z,88.53
2019-02-10T07:01:10.634Z,109.13
2019-02-10T07:03:50.877Z,79.60
2019-02-10T07:06:20.817Z,79.30
2019-02-10T07:08:54.882Z,80.60
2019-02-10T07:11:24.831Z,90.87
2019-02-10T07:13:57.037Z,102.17
2019-02-10T07:16:38.844Z,107.50
2019-02-10T07:19:46.391Z,94.57
2019-02-10T07:22:35.610Z,90.67
2019-02-10T07:25:17.946Z,85.27
2019-02-10T07:27:52.140Z,87.70
2019-02-10T07:30:43.143Z,107.40
2019-02-10T07:33:18.969Z,86.20
2019-02-10T07:36:12.663Z,86.77
2019-02-10T07:39:05.957Z,86.13
2019-02-10T07:41:48.559Z,90.00
2019-02-10T07:44:33.597Z,88.43
2019-02-10T07:47:21.640Z,88.33
2019-02-10T07:50:00.429Z,89.40
2019-02-10T07:52:37.997Z,87.63
2019-02-10T07:55:27.848Z,89.90
2019-02-10T07:58:04.103Z,89.60
2019-02-10T08:00:52.139Z,90.23
2019-02-10T08:03:31.236Z,87.77
2019-02-10T08:06:19.176Z,89.30
2019-02-10T08:09:07.741Z,88.20
2019-02-10T08:12:02.570Z,90.37
2019-02-10T08:14:44.841Z,91.77
2019-02-10T08:17:30.207Z,89.93
2019-02-10T08:20:29.582Z,91.20
2019-02-10T08:23:11.582Z,89.00
2019-02-10T08:26:16.965Z,87.57
2019-02-10T08:29:22.199Z,89.43
2019-02-10T08:32:15.328Z,91.87
2019-02-10T08:34:54.372Z,87.13
2019-02-10T08:37:47.273Z,91.60
2019-02-10T08:40:36.627Z,91.03
2019-02-10T08:43:25.845Z,86.27
2019-02-10T08:49:17.885Z,92.57
2019-02-10T08:52:09.680Z,96.00
2019-02-10T08:57:22.618Z,93.37
2019-02-10T08:59:52.639Z,95.07
2019-02-10T09:02:22.663Z,94.30
2019-02-10T09:04:52.695Z,98.77
2019-02-10T09:07:22.748Z,95.83
2019-02-10T09:10:03.573Z,101.13
2019-02-10T09:12:45.286Z,95.03
2019-02-10T09:15:28.538Z,90.77
2019-02-10T09:18:14.844Z,97.63
2019-02-10T09:20:58.677Z,89.47
2019-02-10T09:23:44.001Z,95.17
2019-02-10T09:26:27.713Z,92.63
2019-02-10T09:29:13.437Z,91.87
2019-02-10T09:31:57.336Z,90.03
2019-02-10T09:34:29.886Z,91.97
2019-02-10T09:37:00.720Z,90.93
2019-02-10T09:39:31.253Z,93.50
2019-02-10T09:42:01.177Z,93.53
2019-02-10T09:44:31.180Z,93.37
2019-02-10T09:47:01.126Z,97.67
2019-02-10T09:49:31.138Z,94.23
2019-02-10T09:52:20.516Z,94.27
2019-02-10T09:54:50.558Z,94.37
2019-02-10T09:57:20.498Z,91.90
2019-02-10T09:59:50.457Z,98.43
2019-02-10T10:02:24.281Z,92.77
2019-02-10T10:05:40.336Z,94.70
2019-02-10T10:08:22.374Z,96.57
2019-02-10T10:10:52.271Z,94.33
2019-02-10T10:13:22.317Z,93.10
2019-02-10T10:15:58.051Z,122.27
2019-02-10T10:18:28.191Z,101.20
2019-02-10T10:21:19.578Z,98.97
2019-02-10T10:23:50.762Z,100.90
2019-02-10T10:26:20.677Z,112.47
2019-02-10T10:28:50.766Z,99.23
2019-02-10T10:31:20.699Z,100.23
2019-02-10T10:33:50.732Z,93.27
2019-02-10T10:36:20.656Z,99.00
2019-02-10T10:38:50.762Z,92.83
2019-02-10T10:41:20.687Z,95.83
2019-02-10T10:43:51.721Z,102.57
2019-02-10T10:46:21.615Z,98.30
2019-02-10T10:48:51.709Z,98.83
2019-02-10T10:51:21.637Z,101.53
2019-02-10T10:53:51.700Z,102.73
2019-02-10T10:56:21.620Z,102.40
2019-02-10T10:58:51.690Z,99.27
2019-02-10T11:01:25.276Z,96.43
2019-02-10T11:04:07.228Z,103.07
2019-02-10T11:06:43.943Z,98.13
2019-02-10T11:09:14.132Z,101.40
2019-02-10T11:11:44.063Z,104.67
2019-02-10T11:14:14.075Z,105.87
2019-02-10T11:16:45.089Z,109.67
2019-02-10T11:19:15.218Z,106.77
2019-02-10T11:21:45.226Z,107.23
2019-02-10T11:24:15.712Z,105.30
2019-02-10T11:26:45.973Z,107.00
2019-02-10T11:29:15.951Z,102.70
2019-02-10T11:31:45.885Z,101.00
2019-02-10T11:34:15.971Z,107.00
2019-02-10T11:36:45.897Z,107.80
2019-02-10T11:39:15.917Z,106.23
2019-02-10T11:41:45.976Z,108.13
2019-02-10T11:44:17.003Z,106.30
2019-02-10T11:46:46.932Z,109.73
2019-02-10T11:49:18.028Z,105.93
2019-02-10T11:51:48.157Z,105.17
2019-02-10T11:54:18.241Z,103.23
2019-02-10T11:56:48.250Z,102.10
2019-02-10T11:59:18.336Z,108.47
2019-02-10T12:01:48.258Z,104.00
2019-02-10T12:04:18.330Z,105.57
2019-02-10T12:06:48.532Z,107.30
2019-02-10T12:09:18.736Z,103.10
2019-02-10T12:11:49.173Z,106.90
2019-02-10T12:14:19.611Z,98.97
2019-02-10T12:16:50.821Z,104.00
2019-02-10T12:19:21.392Z,108.80
2019-02-10T12:21:51.773Z,103.83
2019-02-10T12:24:22.188Z,109.83
2019-02-10T12:26:52.406Z,109.57
2019-02-10T12:29:22.459Z,108.07
2019-02-10T12:31:52.464Z,109.97
2019-02-10T12:34:22.552Z,107.90
2019-02-10T12:36:52.508Z,111.23
2019-02-10T12:39:23.678Z,110.30
2019-02-10T12:41:53.841Z,106.70
2019-02-10T12:44:23.831Z,108.67
2019-02-10T12:46:53.871Z,111.13
2019-02-10T12:49:24.053Z,102.30
2019-02-10T12:51:53.916Z,104.50
2019-02-10T12:54:23.923Z,110.30
2019-02-10T12:56:54.350Z,108.07
2019-02-10T12:59:24.484Z,111.50
2019-02-10T13:01:54.402Z,109.87
2019-02-10T13:04:24.485Z,109.30
2019-02-10T13:06:54.415Z,109.27
2019-02-10T13:09:24.592Z,109.43
2019-02-10T13:11:58.415Z,111.13
2019-02-10T13:14:26.199Z,105.33
2019-02-10T13:16:57.235Z,111.10
2019-02-10T13:19:27.327Z,108.07
2019-02-10T13:21:57.550Z,110.60
2019-02-10T13:24:28.280Z,113.60
2019-02-10T13:26:59.716Z,109.07
2019-02-10T13:29:30.182Z,111.10
2019-02-10T13:32:00.253Z,109.50
2019-02-10T13:34:31.728Z,107.63
2019-02-10T13:37:01.863Z,107.20
2019-02-10T13:39:32.280Z,112.53
2019-02-10T13:42:02.906Z,110.40
2019-02-10T13:44:33.344Z,113.90
2019-02-10T13:47:03.614Z,113.23
2019-02-10T13:49:33.905Z,109.83
2019-02-10T13:52:03.974Z,112.33
2019-02-10T13:54:34.095Z,111.20
2019-02-10T13:57:04.146Z,115.87
2019-02-10T13:59:34.278Z,117.03
2019-02-10T14:02:04.228Z,114.33
2019-02-10T14:04:34.273Z,113.90
2019-02-10T14:07:06.167Z,112.40
2019-02-10T14:09:36.402Z,113.33
2019-02-10T14:12:06.430Z,117.77
2019-02-10T14:14:36.538Z,116.93
2019-02-10T14:17:07.580Z,115.13
2019-02-10T14:19:38.826Z,118.20
2019-02-10T14:22:09.067Z,120.90
2019-02-10T14:24:39.173Z,119.53
2019-02-10T14:27:09.229Z,116.00
2019-02-10T14:29:39.417Z,122.63
2019-02-10T14:32:09.722Z,122.77
2019-02-10T14:34:40.290Z,119.90
2019-02-10T14:37:10.383Z,119.90
2019-02-10T14:39:40.826Z,120.03
2019-02-10T14:42:10.871Z,124.20
2019-02-10T14:44:41.357Z,120.77
2019-02-10T14:47:12.694Z,123.53
2019-02-10T14:49:44.262Z,122.27
2019-02-10T14:52:14.641Z,119.77
2019-02-10T14:54:45.234Z,115.27
2019-02-10T14:57:15.587Z,114.60
2019-02-10T14:59:46.080Z,118.03
2019-02-10T15:02:16.426Z,115.03
2019-02-10T15:04:47.006Z,123.27
2019-02-10T15:07:25.067Z,117.97
2019-02-10T15:09:49.239Z,123.70
2019-02-10T15:12:19.594Z,120.17
2019-02-10T15:14:49.963Z,118.80
2019-02-10T15:17:21.283Z,120.03
2019-02-10T15:19:51.790Z,117.73
2019-02-10T15:22:22.140Z,119.83
2019-02-10T15:24:52.649Z,118.07
2019-02-10T15:27:23.003Z,119.87
2019-02-10T15:29:53.352Z,121.37
2019-02-10T15:32:23.599Z,121.57
2019-02-10T15:34:53.980Z,121.47
2019-02-10T15:37:24.133Z,114.17
2019-02-10T15:39:54.605Z,121.57
2019-02-10T15:42:25.478Z,123.23
2019-02-10T15:44:58.410Z,129.40
2019-02-10T15:47:28.848Z,139.40
2019-02-10T15:50:06.870Z,123.97
2019-02-10T15:52:37.240Z,123.60
2019-02-10T15:55:09.628Z,128.47
2019-02-10T15:57:41.055Z,126.27
2019-02-10T16:00:14.213Z,121.83
2019-02-10T16:02:44.760Z,127.97
2019-02-10T16:05:15.269Z,129.87
2019-02-10T16:07:46.861Z,130.87
2019-02-10T16:10:17.412Z,121.50
2019-02-10T16:12:47.888Z,127.63
2019-02-10T16:15:18.249Z,129.47
2019-02-10T16:17:49.745Z,131.37
2019-02-10T16:20:20.108Z,130.70
2019-02-10T16:22:50.718Z,130.90
2019-02-10T16:25:23.948Z,128.07
2019-02-10T16:27:55.544Z,130.07
2019-02-10T16:30:25.883Z,132.13
2019-02-10T16:32:56.417Z,128.57
2019-02-10T16:35:26.983Z,135.47
2019-02-10T16:38:10.295Z,136.37
2019-02-10T16:40:40.851Z,133.27
2019-02-10T16:43:11.322Z,134.13
2019-02-10T16:45:41.688Z,134.17
2019-02-10T16:48:13.286Z,139.57
2019-02-10T16:50:43.646Z,136.83
2019-02-10T16:53:14.140Z,134.27
2019-02-10T16:55:44.509Z,137.97
2019-02-10T16:58:16.245Z,137.77
2019-02-10T17:00:49.620Z,138.13
2019-02-10T17:03:20.091Z,136.57
2019-02-10T17:05:50.604Z,143.83
2019-02-10T17:08:22.692Z,137.87
2019-02-10T17:10:53.093Z,141.47
2019-02-10T17:13:23.541Z,142.20
2019-02-10T17:15:54.002Z,140.20
2019-02-10T17:18:25.492Z,138.60
2019-02-10T17:20:55.917Z,140.80
2019-02-10T17:23:26.449Z,140.90
2019-02-10T17:26:18.132Z,137.20
2019-02-10T17:28:48.784Z,132.53
2019-02-10T17:31:19.128Z,132.83
2019-02-10T17:33:49.627Z,135.07
2019-02-10T17:36:20.213Z,133.17
2019-02-10T17:38:51.710Z,128.37
2019-02-10T17:41:23.291Z,127.50
2019-02-10T17:43:53.737Z,127.70
2019-02-10T17:46:26.144Z,125.67
2019-02-10T17:49:00.241Z,119.97
2019-02-10T17:51:32.222Z,121.43
2019-02-10T17:54:02.658Z,120.20
2019-02-10T17:56:33.060Z,121.53
2019-02-10T17:59:03.951Z,119.87
2019-02-10T18:01:34.272Z,122.40
2019-02-10T18:04:04.711Z,122.40
2019-02-10T18:06:36.715Z,121.60
2019-02-10T18:09:07.416Z,122.13
2019-02-10T18:11:38.720Z,117.30
2019-02-10T18:14:10.844Z,119.93
2019-02-10T18:16:45.951Z,116.37
2019-02-10T18:19:27.379Z,118.07
2019-02-10T18:21:59.280Z,117.57
2019-02-10T18:24:37.472Z,115.17
2019-02-10T18:27:09.580Z,116.53
2019-02-10T18:29:51.426Z,117.90
2019-02-10T18:32:29.469Z,113.67
2019-02-10T18:35:01.565Z,118.27
2019-02-10T18:37:42.870Z,116.97
2019-02-10T18:40:20.764Z,116.97
2019-02-10T18:43:04.992Z,118.67
2019-02-10T18:45:46.301Z,119.83
2019-02-10T18:48:22.457Z,120.43
2019-02-10T18:50:57.165Z,119.53
2019-02-10T18:53:38.833Z,119.70
2019-02-10T18:56:13.409Z,118.50
2019-02-10T18:58:54.200Z,119.73
2019-02-10T19:01:39.782Z,118.40
2019-02-10T19:04:11.947Z,118.80
2019-02-10T19:06:43.789Z,119.20
2019-02-10T19:09:18.581Z,114.00
2019-02-10T19:12:02.739Z,116.83
2019-02-10T19:14:44.211Z,114.67
2019-02-10T19:17:13.984Z,115.37
2019-02-10T19:19:51.088Z,116.83
2019-02-10T19:22:23.188Z,113.73
2019-02-10T19:25:11.700Z,116.23
2019-02-10T19:30:49.688Z,111.07
2019-02-10T19:33:21.646Z,111.80
2019-02-10T19:35:56.939Z,116.00
2019-02-10T19:38:33.106Z,108.20
2019-02-10T19:41:15.977Z,114.70
2019-02-10T19:43:57.495Z,113.23
2019-02-10T19:46:38.602Z,114.47
2019-02-10T19:52:18.826Z,135.97
2019-02-10T19:55:02.749Z,118.53
2019-02-10T19:57:37.537Z,113.70
2019-02-10T20:00:11.604Z,110.17
2019-02-10T20:02:52.694Z,106.17
2019-02-10T20:05:41.892Z,111.50
2019-02-10T20:08:29.071Z,111.00
2019-02-10T20:11:13.548Z,115.53
2019-02-10T20:13:52.275Z,110.10
2019-02-10T20:16:39.771Z,115.77
2019-02-10T20:19:18.541Z,123.47
2019-02-10T20:22:07.393Z,115.00
2019-02-10T20:24:42.927Z,107.97
2019-02-10T20:27:30.473Z,110.10
2019-02-10T20:30:05.518Z,111.90
2019-02-10T20:32:38.231Z,110.07
2019-02-10T20:35:10.196Z,110.93
2019-02-10T20:37:45.299Z,115.53
2019-02-10T20:40:17.152Z,128.13
2019-02-10T20:42:49.407Z,114.70
2019-02-10T20:45:21.697Z,110.63
2019-02-10T20:48:12.321Z,102.33
2019-02-10T20:51:01.052Z,102.80
2019-02-10T20:53:48.454Z,111.80
2019-02-10T20:56:20.494Z,108.00
2019-02-10T20:58:58.827Z,123.17
2019-02-10T21:01:37.207Z,128.80
2019-02-10T21:04:16.179Z,113.70
2019-02-10T21:06:54.368Z,110.97
2019-02-10T21:09:41.922Z,112.00
2019-02-10T21:15:25.496Z,108.37
2019-02-10T21:17:57.483Z,106.43
2019-02-10T21:21:07.346Z,107.97
2019-02-10T21:23:56.956Z,99.27
2019-02-10T21:26:29.845Z,99.47
2019-02-10T21:29:04.983Z,119.40
2019-02-10T21:32:07.136Z,111.40
2019-02-10T21:34:58.069Z,106.87
2019-02-10T21:37:39.918Z,104.67
2019-02-10T21:40:18.537Z,105.17
2019-02-10T21:42:53.800Z,111.47
2019-02-10T21:45:31.610Z,109.23
2019-02-10T21:48:09.194Z,106.17
2019-02-10T21:50:39.457Z,109.93
2019-02-10T21:53:11.571Z,101.77
2019-02-10T21:55:41.602Z,106.17
2019-02-10T21:58:11.984Z,107.83
2019-02-10T22:00:43.174Z,111.37
2019-02-10T22:03:14.629Z,106.23
2019-02-10T22:05:45.142Z,107.43
2019-02-10T22:08:15.829Z,106.10
2019-02-10T22:10:46.461Z,111.93
2019-02-10T22:13:17.734Z,105.53
2019-02-10T22:15:49.053Z,108.37
2019-02-10T22:18:19.334Z,110.23
2019-02-10T22:20:49.471Z,105.70
2019-02-10T22:23:19.782Z,108.27
2019-02-10T22:25:49.692Z,107.60
2019-02-10T22:28:20.835Z,106.30
2019-02-10T22:30:51.107Z,108.17
2019-02-10T22:33:21.147Z,108.70
2019-02-10T22:35:51.171Z,106.60
2019-02-10T22:38:21.942Z,102.87
2019-02-10T22:40:53.096Z,104.90
2019-02-10T22:43:25.438Z,103.70
2019-02-10T22:45:56.458Z,105.07
2019-02-10T22:48:27.044Z,102.47
2019-02-10T22:50:56.978Z,104.73
2019-02-10T22:53:27.157Z,104.50
2019-02-10T22:55:57.063Z,96.97
2019-02-10T22:58:27.049Z,100.53
2019-02-10T23:01:00.010Z,101.97
2019-02-10T23:03:30.338Z,99.70
2019-02-10T23:06:00.376Z,95.53
2019-02-10T23:08:30.331Z,97.97
2019-02-10T23:11:00.237Z,97.70
2019-02-10T23:13:30.327Z,99.00
2019-02-10T23:16:00.290Z,99.93
2019-02-10T23:18:30.292Z,98.90
2019-02-10T23:21:00.203Z,101.33
2019-02-10T23:23:31.337Z,101.23
2019-02-10T23:26:01.472Z,99.53
2019-02-10T23:28:31.839Z,99.77
2019-02-10T23:31:01.764Z,97.33
2019-02-10T23:33:32.840Z,99.03
2019-02-10T23:36:02.746Z,98.50
2019-02-10T23:38:32.762Z,97.73
2019-02-10T23:41:02.715Z,99.23
2019-02-10T23:43:33.817Z,101.13
2019-02-10T23:46:03.789Z,101.63
2019-02-10T23:48:33.812Z,98.63
2019-02-10T23:51:03.706Z,100.17
2019-02-10T23:53:34.805Z,102.03
2019-02-10T23:56:04.718Z,99.67
2019-02-10T23:58:34.844Z,104.20
